Time;durP1;ratioP1;P1;durP2;ratioP2;P2;SDS_P1;SDS_P2;PMS_P1;PMS_P2;Temp;Humidity;BMP_temperature;BMP_pressure;BME280_temperature;BME280_humidity;BME280_pressure;Samples;Min_cycle;Max_cycle;Signal;HPM_P1;HPM_P2
2024/01/26 00:01:33;;;;;;;8.85;2.58;;;5.00;97.00;;;;;;4993326;28;20040;-69
2024/01/26 00:03:58;;;;;;;7.75;2.67;;;5.00;97.00;;;;;;5013842;28;20192;-70
2024/01/26 00:06:24;;;;;;;10.18;3.25;;;5.00;96.90;;;;;;5001608;28;20112;-69
2024/01/26 00:08:50;;;;;;;8.00;2.70;;;5.00;97.00;;;;;;4996009;28;20034;-70
2024/01/26 00:11:17;;;;;;;5.10;2.58;;;5.10;97.00;;;;;;4999335;28;20030;-70
2024/01/26 00:13:42;;;;;;;13.77;3.80;;;5.10;97.10;;;;;;4997088;28;20061;-69
2024/01/26 00:16:08;;;;;;;17.15;2.45;;;5.10;97.10;;;;;;4998215;28;20109;-71
2024/01/26 00:18:34;;;;;;;6.82;2.35;;;5.10;97.20;;;;;;4998837;28;20042;-70
2024/01/26 00:20:59;;;;;;;6.65;2.30;;;5.10;97.30;;;;;;4996883;28;20029;-70
2024/01/26 00:23:25;;;;;;;5.05;2.13;;;5.10;97.30;;;;;;4993651;28;20026;-71
2024/01/26 00:25:50;;;;;;;8.48;2.60;;;5.10;97.40;;;;;;5011014;28;20030;-70
2024/01/26 00:28:16;;;;;;;6.75;2.42;;;5.20;97.50;;;;;;4994451;28;20450;-70
2024/01/26 00:30:41;;;;;;;7.70;3.30;;;5.20;97.60;;;;;;4995120;28;20064;-72
2024/01/26 00:33:07;;;;;;;8.23;2.28;;;5.20;97.70;;;;;;5001606;28;20108;-70
2024/01/26 00:35:32;;;;;;;6.50;3.10;;;5.20;97.80;;;;;;5003736;28;20140;-71
2024/01/26 00:37:58;;;;;;;10.75;3.30;;;5.30;97.90;;;;;;5003109;28;20171;-71
2024/01/26 00:40:23;;;;;;;6.65;2.80;;;5.30;97.90;;;;;;5002362;28;20026;-70
2024/01/26 00:42:49;;;;;;;6.55;2.53;;;5.30;98.00;;;;;;4997616;28;20033;-70
2024/01/26 00:45:14;;;;;;;5.05;2.67;;;5.30;98.00;;;;;;4997721;28;20026;-70
2024/01/26 00:47:40;;;;;;;7.97;2.92;;;5.30;98.00;;;;;;5000144;28;20053;-70
2024/01/26 00:50:06;;;;;;;7.30;2.70;;;5.30;98.10;;;;;;5001401;28;20076;-70
2024/01/26 00:52:31;;;;;;;6.43;2.58;;;5.30;98.10;;;;;;5004934;28;20064;-72
2024/01/26 00:54:57;;;;;;;6.28;2.25;;;5.30;98.20;;;;;;5004928;28;20129;-70
2024/01/26 00:57:22;;;;;;;8.55;2.45;;;5.30;98.20;;;;;;4998651;28;20037;-70
2024/01/26 00:59:48;;;;;;;9.27;2.65;;;5.30;98.30;;;;;;4994713;28;20046;-70
2024/01/26 01:02:14;;;;;;;7.90;2.80;;;5.30;98.30;;;;;;4995013;28;20030;-70
2024/01/26 01:04:40;;;;;;;6.53;3.05;;;5.40;98.30;;;;;;4997919;28;20104;-70
2024/01/26 01:07:05;;;;;;;6.40;2.47;;;5.30;98.30;;;;;;4995006;28;20045;-70
2024/01/26 01:09:31;;;;;;;5.60;2.97;;;5.40;98.40;;;;;;5000542;28;20056;-70
2024/01/26 01:11:57;;;;;;;4.65;2.28;;;5.40;98.40;;;;;;4998456;28;20586;-72
2024/01/26 01:14:23;;;;;;;7.43;2.78;;;5.40;98.50;;;;;;4995013;28;20089;-70
2024/01/26 01:16:50;;;;;;;9.75;4.13;;;5.30;98.60;;;;;;4997526;28;20481;-69
2024/01/26 01:19:16;;;;;;;5.07;2.58;;;5.40;98.70;;;;;;4995147;28;20034;-70
2024/01/26 01:21:41;;;;;;;5.55;2.38;;;5.40;98.70;;;;;;4994791;28;20042;-70
2024/01/26 01:24:07;;;;;;;6.78;2.22;;;5.40;98.80;;;;;;5000269;28;20367;-70
2024/01/26 01:26:33;;;;;;;3.75;1.75;;;5.40;98.80;;;;;;5000428;28;20045;-71
2024/01/26 01:28:58;;;;;;;4.88;2.55;;;5.40;98.80;;;;;;4998802;28;20085;-70
2024/01/26 01:31:24;;;;;;;7.70;2.88;;;5.50;98.80;;;;;;4994230;28;20160;-69
2024/01/26 01:33:50;;;;;;;6.18;2.90;;;5.40;98.80;;;;;;4998979;28;20109;-70
2024/01/26 01:36:15;;;;;;;5.93;2.42;;;5.50;98.90;;;;;;5001258;28;20187;-70
2024/01/26 01:38:41;;;;;;;5.13;1.92;;;5.50;98.90;;;;;;4995169;28;20038;-70
2024/01/26 01:41:06;;;;;;;6.47;2.58;;;5.50;98.90;;;;;;5002199;28;20136;-70
2024/01/26 01:43:32;;;;;;;5.43;2.22;;;5.60;99.10;;;;;;5000985;28;20513;-70
2024/01/26 01:45:57;;;;;;;9.45;2.42;;;5.50;99.10;;;;;;4997841;28;20044;-70
2024/01/26 01:48:23;;;;;;;6.38;2.58;;;5.50;99.20;;;;;;4999874;28;20153;-70
2024/01/26 01:50:49;;;;;;;7.00;2.60;;;5.50;99.20;;;;;;4995984;28;20042;-70
2024/01/26 01:53:15;;;;;;;6.22;2.53;;;5.50;99.40;;;;;;4994500;28;20096;-70
2024/01/26 01:55:42;;;;;;;8.98;2.53;;;5.50;99.40;;;;;;4990509;28;20034;-70
2024/01/26 01:58:08;;;;;;;9.45;2.60;;;5.50;99.50;;;;;;4997434;28;20042;-70
2024/01/26 02:00:34;;;;;;;6.20;2.30;;;5.50;99.60;;;;;;4990186;28;20045;-70
2024/01/26 02:02:59;;;;;;;8.82;3.13;;;5.50;99.60;;;;;;4991388;28;20438;-70
2024/01/26 02:05:25;;;;;;;5.85;2.10;;;5.60;99.70;;;;;;4996345;28;20356;-70
2024/01/26 02:07:51;;;;;;;4.93;2.38;;;5.50;99.80;;;;;;4997976;28;20042;-71
2024/01/26 02:10:17;;;;;;;7.13;2.35;;;5.60;99.80;;;;;;4993861;28;20076;-70
2024/01/26 02:12:43;;;;;;;9.15;2.75;;;5.60;99.80;;;;;;5004469;28;20488;-70
2024/01/26 02:15:09;;;;;;;5.63;2.67;;;5.60;99.90;;;;;;5002188;28;20117;-70
2024/01/26 02:17:36;;;;;;;9.65;3.20;;;5.60;99.90;;;;;;4995240;28;20038;-69
2024/01/26 02:20:04;;;;;;;7.95;2.65;;;5.60;99.90;;;;;;5002733;28;20503;-70
2024/01/26 02:22:29;;;;;;;4.22;2.47;;;5.60;99.90;;;;;;4996170;28;20105;-70
2024/01/26 02:24:55;;;;;;;6.18;2.28;;;5.60;99.90;;;;;;5001227;28;20129;-70
2024/01/26 02:27:21;;;;;;;6.30;2.72;;;5.50;99.90;;;;;;5003343;28;20049;-70
2024/01/26 02:29:46;;;;;;;9.45;2.72;;;5.60;99.90;;;;;;4990651;28;20030;-70
2024/01/26 02:32:12;;;;;;;5.47;2.58;;;5.60;99.90;;;;;;4997482;28;20034;-70
2024/01/26 02:34:38;;;;;;;7.55;2.65;;;5.60;99.90;;;;;;5005984;28;20073;-72
2024/01/26 02:37:03;;;;;;;5.65;2.58;;;5.60;99.90;;;;;;5000606;28;20096;-70
2024/01/26 02:39:29;;;;;;;6.20;2.97;;;5.50;99.90;;;;;;5003128;28;20124;-71
2024/01/26 02:41:55;;;;;;;8.68;2.60;;;5.60;99.90;;;;;;5007260;28;20116;-70
2024/01/26 02:44:21;;;;;;;7.65;2.50;;;5.60;99.90;;;;;;4997800;28;20046;-70
2024/01/26 02:46:49;;;;;;;4.93;2.20;;;5.60;99.90;;;;;;5023418;28;20651;-70
2024/01/26 02:49:16;;;;;;;8.10;2.78;;;5.60;99.90;;;;;;5003784;28;20037;-70
2024/01/26 02:51:41;;;;;;;7.38;3.05;;;5.60;99.90;;;;;;5007308;28;20386;-70
2024/01/26 02:54:07;;;;;;;5.32;2.67;;;5.60;99.90;;;;;;5006588;28;20057;-70
2024/01/26 02:56:33;;;;;;;10.45;2.90;;;5.60;99.90;;;;;;5001938;28;20107;-70
2024/01/26 02:58:59;;;;;;;7.38;3.28;;;5.60;99.90;;;;;;4997284;28;20479;-69
2024/01/26 03:01:24;;;;;;;10.90;3.20;;;5.60;99.90;;;;;;5001465;28;20048;-72
2024/01/26 03:03:50;;;;;;;4.20;2.08;;;5.60;99.90;;;;;;5001924;28;20037;-70
2024/01/26 03:06:16;;;;;;;7.10;3.50;;;5.60;99.90;;;;;;5001827;28;20245;-70
2024/01/26 03:08:41;;;;;;;7.13;2.47;;;5.60;99.90;;;;;;4999076;28;20329;-70
2024/01/26 03:11:07;;;;;;;5.78;2.38;;;5.60;99.90;;;;;;5005700;28;20045;-70
2024/01/26 03:13:33;;;;;;;6.75;2.97;;;5.60;99.90;;;;;;4999793;28;20109;-70
2024/01/26 03:15:58;;;;;;;9.98;2.90;;;5.60;99.90;;;;;;4994176;28;20117;-70
2024/01/26 03:18:24;;;;;;;6.07;2.63;;;5.60;99.90;;;;;;5000935;28;20038;-70
2024/01/26 03:20:49;;;;;;;8.77;3.10;;;5.60;99.90;;;;;;5002660;28;20030;-70
2024/01/26 03:23:15;;;;;;;8.95;3.00;;;5.60;99.90;;;;;;4996750;28;20482;-70
2024/01/26 03:25:40;;;;;;;7.75;2.92;;;5.60;99.90;;;;;;4998230;28;20022;-69
2024/01/26 03:28:07;;;;;;;8.68;3.13;;;5.60;99.90;;;;;;5003305;28;20046;-69
2024/01/26 03:30:33;;;;;;;8.43;2.85;;;5.70;99.90;;;;;;4993005;28;20031;-69
2024/01/26 03:32:59;;;;;;;7.53;2.60;;;5.70;99.90;;;;;;4993132;28;20462;-68
2024/01/26 03:35:24;;;;;;;9.27;3.42;;;5.70;99.90;;;;;;5001738;28;20045;-69
2024/01/26 03:37:51;;;;;;;7.38;3.15;;;5.70;99.90;;;;;;4996206;28;20069;-69
2024/01/26 03:40:17;;;;;;;6.03;2.70;;;5.70;99.90;;;;;;4997715;28;20120;-72
2024/01/26 03:42:43;;;;;;;6.70;3.55;;;5.70;99.90;;;;;;4993515;28;20432;-70
2024/01/26 03:45:08;;;;;;;8.63;2.47;;;5.80;99.90;;;;;;5004533;28;20053;-69
2024/01/26 03:47:34;;;;;;;7.65;3.63;;;5.80;99.90;;;;;;4993619;28;20050;-70
2024/01/26 03:49:59;;;;;;;9.70;2.97;;;5.80;99.90;;;;;;4993401;28;20030;-69
2024/01/26 03:52:25;;;;;;;11.65;3.63;;;5.80;99.90;;;;;;5003051;28;20026;-69
2024/01/26 03:54:50;;;;;;;11.38;3.28;;;5.90;99.90;;;;;;5002812;28;20065;-69
2024/01/26 03:57:16;;;;;;;6.72;3.28;;;5.90;99.90;;;;;;5004574;28;20163;-69
2024/01/26 03:59:41;;;;;;;9.38;3.50;;;5.90;99.90;;;;;;4988637;28;20093;-69
2024/01/26 04:02:07;;;;;;;6.70;2.70;;;6.00;99.90;;;;;;5001093;28;20343;-69
2024/01/26 04:04:32;;;;;;;7.03;3.35;;;6.00;99.90;;;;;;4992437;28;20038;-69
2024/01/26 04:06:58;;;;;;;7.53;3.10;;;6.00;99.90;;;;;;4995031;28;20030;-69
2024/01/26 04:09:23;;;;;;;7.90;3.28;;;6.10;99.90;;;;;;5002061;28;20446;-69
2024/01/26 04:11:49;;;;;;;10.15;4.10;;;6.10;99.90;;;;;;4997732;28;20061;-69
2024/01/26 04:14:14;;;;;;;6.35;3.22;;;6.10;99.90;;;;;;4997122;28;20081;-69
2024/01/26 04:16:40;;;;;;;8.43;3.58;;;6.10;99.90;;;;;;4994986;28;20432;-69
2024/01/26 04:19:05;;;;;;;7.55;3.80;;;6.10;99.90;;;;;;4996885;28;20122;-68
2024/01/26 04:21:31;;;;;;;6.38;3.17;;;6.10;99.90;;;;;;4995841;28;20124;-69
2024/01/26 04:23:57;;;;;;;10.32;3.90;;;6.10;99.90;;;;;;4996431;28;20046;-69
2024/01/26 04:26:23;;;;;;;12.45;3.42;;;6.10;99.90;;;;;;5008696;28;20030;-70
2024/01/26 04:28:48;;;;;;;9.65;4.07;;;6.10;99.90;;;;;;5004865;28;20033;-70
2024/01/26 04:31:14;;;;;;;8.95;3.80;;;6.10;99.90;;;;;;4998733;28;20144;-69
2024/01/26 04:33:39;;;;;;;12.57;3.85;;;6.10;99.90;;;;;;4993488;28;20027;-69
2024/01/26 04:36:08;;;;;;;9.52;3.60;;;6.10;99.90;;;;;;4989824;28;20567;-69
2024/01/26 04:38:36;;;;;;;9.23;3.97;;;6.10;99.90;;;;;;5000139;28;20025;-71
2024/01/26 04:41:03;;;;;;;9.93;3.97;;;6.20;99.90;;;;;;5006580;28;20026;-69
2024/01/26 04:43:29;;;;;;;9.65;3.90;;;6.20;99.90;;;;;;5004294;28;20026;-72
2024/01/26 04:45:55;;;;;;;11.13;4.13;;;6.20;99.90;;;;;;5003760;28;20034;-69
2024/01/26 04:48:20;;;;;;;11.50;4.70;;;6.10;99.90;;;;;;5004875;28;20042;-69
2024/01/26 04:50:46;;;;;;;9.32;3.53;;;6.20;99.90;;;;;;5006845;28;20110;-69
2024/01/26 04:53:11;;;;;;;9.57;5.28;;;6.20;99.90;;;;;;5003509;28;20082;-68
2024/01/26 04:55:37;;;;;;;11.98;4.82;;;6.20;99.90;;;;;;4998286;28;20038;-68
2024/01/26 04:58:02;;;;;;;9.88;4.20;;;6.20;99.90;;;;;;4992364;28;20054;-69
2024/01/26 05:00:28;;;;;;;12.65;4.40;;;6.30;99.90;;;;;;4997277;28;20170;-70
2024/01/26 05:02:53;;;;;;;10.52;4.38;;;6.30;99.90;;;;;;4999830;28;20030;-69
2024/01/26 05:05:19;;;;;;;14.85;5.22;;;6.20;99.90;;;;;;4997457;28;20100;-70
2024/01/26 05:07:44;;;;;;;10.38;3.65;;;6.30;99.90;;;;;;4999351;28;20430;-69
2024/01/26 05:10:11;;;;;;;12.85;5.13;;;6.30;99.90;;;;;;4994564;28;20087;-70
2024/01/26 05:12:37;;;;;;;11.40;4.57;;;6.30;99.90;;;;;;4997821;28;20105;-68
2024/01/26 05:15:03;;;;;;;12.10;4.78;;;6.30;99.90;;;;;;4994434;28;20173;-69
2024/01/26 05:17:28;;;;;;;9.88;4.47;;;6.40;99.90;;;;;;4997493;28;20066;-68
2024/01/26 05:19:54;;;;;;;13.65;5.53;;;6.40;99.90;;;;;;5003584;28;20030;-69
2024/01/26 05:22:19;;;;;;;11.95;5.03;;;6.40;99.90;;;;;;4998140;28;20034;-69
2024/01/26 05:24:45;;;;;;;13.98;4.28;;;6.40;99.90;;;;;;4993359;28;20415;-69
2024/01/26 05:27:11;;;;;;;11.50;4.63;;;6.40;99.90;;;;;;4996087;28;20089;-69
2024/01/26 05:29:36;;;;;;;10.75;4.38;;;6.50;99.90;;;;;;4996821;28;20061;-70
2024/01/26 05:32:03;;;;;;;8.77;4.13;;;6.50;99.90;;;;;;4991021;28;20046;-69
2024/01/26 05:34:28;;;;;;;10.57;4.53;;;6.50;99.90;;;;;;5005588;28;20044;-69
2024/01/26 05:36:54;;;;;;;11.45;4.35;;;6.50;99.90;;;;;;4994681;28;20042;-69
2024/01/26 05:39:19;;;;;;;11.15;3.97;;;6.50;99.90;;;;;;4990802;28;20081;-69
2024/01/26 05:41:45;;;;;;;9.70;4.28;;;6.50;99.90;;;;;;4997519;28;20030;-69
2024/01/26 05:44:11;;;;;;;12.10;3.90;;;6.60;99.90;;;;;;5002951;28;20026;-69
2024/01/26 05:46:36;;;;;;;10.75;3.80;;;6.60;99.90;;;;;;4995999;28;20435;-70
2024/01/26 05:49:02;;;;;;;9.68;3.95;;;6.60;99.90;;;;;;4994368;28;20048;-68
2024/01/26 05:51:27;;;;;;;10.50;4.38;;;6.70;99.90;;;;;;4999920;28;20447;-70
2024/01/26 05:53:53;;;;;;;9.55;4.35;;;6.70;99.90;;;;;;5005423;28;20113;-68
2024/01/26 05:56:19;;;;;;;11.07;5.18;;;6.70;99.90;;;;;;5005369;28;20126;-69
2024/01/26 05:58:45;;;;;;;11.65;4.82;;;6.80;99.90;;;;;;4992615;28;20149;-69
2024/01/26 06:01:11;;;;;;;9.98;5.05;;;6.70;99.90;;;;;;4995144;28;20423;-68
2024/01/26 06:03:36;;;;;;;12.85;4.07;;;6.80;99.90;;;;;;5003576;28;20034;-69
2024/01/26 06:06:03;;;;;;;8.13;4.20;;;6.80;99.90;;;;;;5002135;28;20224;-69
2024/01/26 06:08:28;;;;;;;9.95;4.32;;;6.90;99.90;;;;;;4999508;28;20074;-70
2024/01/26 06:10:55;;;;;;;9.85;4.53;;;6.90;99.90;;;;;;4996666;28;20057;-69
2024/01/26 06:13:21;;;;;;;11.68;5.28;;;7.00;99.90;;;;;;5002218;28;20130;-69
2024/01/26 06:15:46;;;;;;;7.97;3.95;;;7.00;99.90;;;;;;4992965;28;20092;-68
2024/01/26 06:18:12;;;;;;;9.57;3.90;;;7.00;99.90;;;;;;5006361;28;20336;-69
2024/01/26 06:20:39;;;;;;;9.60;5.53;;;7.00;99.90;;;;;;4999343;28;20038;-69
2024/01/26 06:23:04;;;;;;;13.07;4.90;;;7.10;99.90;;;;;;5007376;28;20029;-69
2024/01/26 06:25:30;;;;;;;10.32;4.50;;;7.10;99.90;;;;;;5007499;28;20030;-69
2024/01/26 06:27:56;;;;;;;11.25;4.90;;;7.10;99.90;;;;;;5008645;28;20076;-69
2024/01/26 06:30:21;;;;;;;9.40;4.20;;;7.10;99.90;;;;;;5001374;28;20033;-69
2024/01/26 06:32:47;;;;;;;11.77;4.70;;;7.10;99.90;;;;;;4993600;28;20057;-69
2024/01/26 06:35:12;;;;;;;14.43;4.53;;;7.10;99.90;;;;;;4996005;28;20117;-68
2024/01/26 06:37:38;;;;;;;11.48;4.28;;;7.10;99.90;;;;;;4998765;28;20121;-68
2024/01/26 06:40:04;;;;;;;11.85;4.63;;;7.10;99.90;;;;;;5005561;28;20033;-70
2024/01/26 06:42:32;;;;;;;10.57;4.80;;;7.20;99.90;;;;;;5000088;28;20029;-72
2024/01/26 06:44:57;;;;;;;8.85;4.68;;;7.20;99.90;;;;;;5005230;28;20033;-70
2024/01/26 06:47:23;;;;;;;8.25;4.35;;;7.20;99.90;;;;;;4999729;28;20305;-71
2024/01/26 06:49:48;;;;;;;11.70;4.55;;;7.20;99.90;;;;;;5002145;28;20140;-69
2024/01/26 06:52:14;;;;;;;12.05;5.38;;;7.20;99.90;;;;;;4998791;28;20110;-70
2024/01/26 06:54:39;;;;;;;14.25;5.32;;;7.20;99.90;;;;;;4996760;28;20494;-70
2024/01/26 06:57:05;;;;;;;13.52;5.05;;;7.30;99.90;;;;;;5002731;28;20110;-71
2024/01/26 06:59:32;;;;;;;14.98;5.95;;;7.30;99.90;;;;;;5002237;28;20034;-72
2024/01/26 07:01:58;;;;;;;10.50;4.60;;;7.30;99.90;;;;;;5000707;28;20423;-69
2024/01/26 07:04:24;;;;;;;9.43;4.07;;;7.40;99.90;;;;;;5003240;28;20029;-68
2024/01/26 07:06:49;;;;;;;14.88;6.38;;;7.40;99.90;;;;;;4998590;28;20055;-68
2024/01/26 07:09:15;;;;;;;12.07;5.50;;;7.40;99.90;;;;;;5003638;28;20114;-68
2024/01/26 07:11:41;;;;;;;15.15;5.68;;;7.40;99.90;;;;;;4999851;28;20049;-68
2024/01/26 07:14:07;;;;;;;11.60;4.75;;;7.50;99.90;;;;;;5003409;28;20108;-69
2024/01/26 07:16:32;;;;;;;12.23;5.43;;;7.50;99.90;;;;;;5012904;28;20091;-68
2024/01/26 07:18:58;;;;;;;10.90;5.15;;;7.50;99.90;;;;;;5005268;28;20057;-69
2024/01/26 07:21:23;;;;;;;13.40;6.03;;;7.50;99.90;;;;;;5002182;28;20046;-68
2024/01/26 07:23:49;;;;;;;11.55;5.35;;;7.50;99.90;;;;;;4999754;28;20022;-67
2024/01/26 07:26:19;;;;;;;13.35;6.15;;;7.50;99.90;;;;;;4997775;28;20079;-68
2024/01/26 07:28:45;;;;;;;10.38;5.25;;;7.50;99.90;;;;;;5001120;28;20068;-69
2024/01/26 07:31:11;;;;;;;8.35;4.15;;;7.50;99.90;;;;;;5019766;28;20061;-68
2024/01/26 07:33:36;;;;;;;12.52;5.28;;;7.50;99.90;;;;;;5002980;28;20042;-68
2024/01/26 07:36:02;;;;;;;12.88;6.00;;;7.60;99.90;;;;;;5015404;28;20410;-68
2024/01/26 07:38:27;;;;;;;12.90;5.25;;;7.60;99.90;;;;;;4996884;28;20075;-68
2024/01/26 07:40:53;;;;;;;13.20;5.30;;;7.60;99.90;;;;;;5003350;28;20033;-68
2024/01/26 07:43:19;;;;;;;13.43;5.88;;;7.70;99.90;;;;;;5004235;28;20375;-68
2024/01/26 07:45:45;;;;;;;12.90;5.47;;;7.60;99.90;;;;;;5005858;28;20053;-69
2024/01/26 07:48:12;;;;;;;9.73;4.97;;;7.70;99.90;;;;;;4990026;28;20566;-68
2024/01/26 07:50:40;;;;;;;13.57;5.38;;;7.80;99.90;;;;;;4995891;28;20037;-67
2024/01/26 07:53:05;;;;;;;10.20;5.22;;;7.80;99.90;;;;;;4997762;28;20137;-67
2024/01/26 07:55:31;;;;;;;9.20;4.97;;;7.80;99.90;;;;;;5000383;28;20476;-68
2024/01/26 07:57:56;;;;;;;10.00;5.38;;;7.80;99.90;;;;;;4997872;28;20073;-68
2024/01/26 08:00:23;;;;;;;16.08;5.72;;;7.90;99.90;;;;;;4997918;28;20472;-68
2024/01/26 08:02:48;;;;;;;12.63;5.40;;;7.90;99.90;;;;;;5001200;28;20034;-69
2024/01/26 08:05:14;;;;;;;14.57;5.80;;;7.90;99.90;;;;;;4995977;28;20125;-68
2024/01/26 08:07:39;;;;;;;9.70;5.10;;;7.90;99.90;;;;;;4998550;28;20435;-68
2024/01/26 08:10:05;;;;;;;12.25;5.22;;;8.00;99.90;;;;;;4990400;28;20057;-68
2024/01/26 08:12:31;;;;;;;9.30;4.65;;;8.00;99.90;;;;;;5006877;28;20034;-68
2024/01/26 08:14:57;;;;;;;11.75;5.88;;;8.00;99.90;;;;;;4989024;28;20422;-68
2024/01/26 08:17:22;;;;;;;11.98;5.43;;;8.10;99.90;;;;;;4992265;28;20534;-68
2024/01/26 08:19:48;;;;;;;12.82;5.97;;;8.10;99.90;;;;;;5012111;28;20096;-68
2024/01/26 08:22:13;;;;;;;10.13;5.28;;;8.10;99.90;;;;;;4996294;28;20495;-68
2024/01/26 08:24:39;;;;;;;10.45;4.70;;;8.10;99.90;;;;;;5002204;28;20136;-69
2024/01/26 08:27:05;;;;;;;9.95;4.82;;;8.10;99.90;;;;;;5009329;28;20045;-68
2024/01/26 08:29:31;;;;;;;9.25;4.88;;;8.10;99.90;;;;;;5001658;28;20140;-70
2024/01/26 08:31:57;;;;;;;10.52;5.43;;;8.10;99.90;;;;;;5000562;28;20022;-68
2024/01/26 08:34:22;;;;;;;10.90;4.97;;;8.10;99.90;;;;;;4990193;28;20037;-67
2024/01/26 08:36:48;;;;;;;11.90;5.10;;;8.20;99.90;;;;;;4990868;28;20022;-68
2024/01/26 08:39:14;;;;;;;11.07;4.80;;;8.20;99.90;;;;;;4989570;28;20121;-67
2024/01/26 08:41:40;;;;;;;13.10;6.20;;;8.20;99.90;;;;;;4992329;28;20030;-68
2024/01/26 08:44:05;;;;;;;12.50;4.63;;;8.30;99.90;;;;;;5025434;28;20030;-68
2024/01/26 08:46:31;;;;;;;10.40;5.72;;;8.30;99.90;;;;;;4999085;28;20446;-68
2024/01/26 08:48:56;;;;;;;11.45;5.10;;;8.40;99.90;;;;;;5022623;28;20049;-68
2024/01/26 08:51:23;;;;;;;12.38;5.80;;;8.40;99.90;;;;;;4997042;28;20034;-67
2024/01/26 08:53:49;;;;;;;11.32;6.60;;;8.40;99.90;;;;;;4999602;28;20038;-67
2024/01/26 08:56:15;;;;;;;10.10;4.95;;;8.40;99.90;;;;;;5002013;28;20179;-67
2024/01/26 08:58:41;;;;;;;9.77;5.03;;;8.40;99.90;;;;;;4994107;28;20038;-68
2024/01/26 09:01:07;;;;;;;11.35;5.30;;;8.40;99.90;;;;;;4994813;28;20037;-68
2024/01/26 09:03:33;;;;;;;12.38;6.00;;;8.50;99.90;;;;;;4999979;28;20309;-67
2024/01/26 09:05:59;;;;;;;12.20;5.15;;;8.50;99.90;;;;;;4999924;28;20049;-68
2024/01/26 09:08:24;;;;;;;11.23;6.28;;;8.50;99.90;;;;;;4994635;28;20260;-68
2024/01/26 09:10:50;;;;;;;11.75;5.07;;;8.50;99.90;;;;;;4993794;28;20449;-68
2024/01/26 09:13:15;;;;;;;11.98;5.30;;;8.50;99.90;;;;;;4996231;28;20030;-68
2024/01/26 09:15:41;;;;;;;11.40;5.63;;;8.50;99.90;;;;;;4990758;28;20038;-68
2024/01/26 09:18:07;;;;;;;8.80;4.60;;;8.50;99.90;;;;;;5016334;28;20046;-67
2024/01/26 09:20:32;;;;;;;11.00;5.50;;;8.50;99.90;;;;;;4998592;28;20045;-67
2024/01/26 09:22:58;;;;;;;12.20;5.15;;;8.50;99.90;;;;;;4996405;28;20098;-67
2024/01/26 09:25:23;;;;;;;13.23;5.28;;;8.60;99.90;;;;;;5004810;28;20100;-68
2024/01/26 09:27:49;;;;;;;8.63;4.90;;;8.60;99.90;;;;;;5003071;28;20054;-68
2024/01/26 09:30:14;;;;;;;7.80;4.22;;;8.60;99.90;;;;;;5003095;28;20121;-68
2024/01/26 09:32:40;;;;;;;10.40;5.13;;;8.60;99.90;;;;;;5000763;28;20141;-67
2024/01/26 09:35:07;;;;;;;8.95;4.53;;;8.60;99.90;;;;;;4993128;28;20109;-67
2024/01/26 09:37:33;;;;;;;12.02;4.50;;;8.60;99.90;;;;;;4999588;28;20374;-67
2024/01/26 09:39:58;;;;;;;8.95;3.95;;;8.60;99.90;;;;;;5003192;28;20046;-68
2024/01/26 09:42:24;;;;;;;9.38;4.20;;;8.60;99.90;;;;;;5000162;28;20124;-67
2024/01/26 09:44:50;;;;;;;9.82;4.38;;;8.70;99.90;;;;;;4998245;28;20092;-68
2024/01/26 09:47:15;;;;;;;8.25;4.53;;;8.70;99.90;;;;;;5004288;28;20022;-69
2024/01/26 09:49:56;;;;;;;10.27;5.35;;;8.70;99.90;;;;;;4999964;28;20129;-67
2024/01/26 09:52:22;;;;;;;7.37;4.17;;;8.70;99.90;;;;;;5000244;28;20137;-68
2024/01/26 09:54:49;;;;;;;9.52;4.55;;;8.80;99.90;;;;;;4999846;28;20042;-68
2024/01/26 09:57:16;;;;;;;6.68;3.53;;;8.80;99.90;;;;;;4997975;28;20062;-69
2024/01/26 09:59:42;;;;;;;5.85;3.13;;;8.80;99.90;;;;;;5002834;28;20484;-68
2024/01/26 10:02:10;;;;;;;6.93;3.85;;;8.80;99.90;;;;;;5000365;28;20136;-68
2024/01/26 10:04:35;;;;;;;7.72;4.30;;;8.80;99.90;;;;;;4998152;28;20030;-69
2024/01/26 10:07:02;;;;;;;7.55;3.38;;;8.90;99.90;;;;;;4998150;28;20053;-68
2024/01/26 10:09:29;;;;;;;6.90;3.15;;;8.90;99.90;;;;;;5001178;28;20358;-69
2024/01/26 10:11:54;;;;;;;6.47;3.08;;;8.90;99.90;;;;;;4998055;28;20041;-69
2024/01/26 10:14:23;;;;;;;7.65;3.30;;;9.00;99.90;;;;;;5000444;28;20382;-68
2024/01/26 10:16:55;;;;;;;6.93;3.28;;;9.00;99.90;;;;;;5000202;28;20029;-67
2024/01/26 10:19:23;;;;;;;5.70;3.00;;;9.00;99.90;;;;;;4993361;28;20038;-67
2024/01/26 10:21:49;;;;;;;7.82;2.97;;;8.90;99.90;;;;;;4995232;28;20037;-68
2024/01/26 10:24:17;;;;;;;3.78;2.20;;;9.00;99.90;;;;;;4994349;28;20038;-69
2024/01/26 10:26:43;;;;;;;4.90;2.55;;;9.00;99.90;;;;;;4995142;28;20041;-67
2024/01/26 10:29:10;;;;;;;5.50;2.78;;;9.00;99.90;;;;;;4991950;28;20441;-68
2024/01/26 10:31:36;;;;;;;5.95;2.70;;;9.10;99.90;;;;;;4993823;28;20030;-68
2024/01/26 10:34:03;;;;;;;6.55;2.65;;;9.10;99.90;;;;;;4996152;28;20034;-68
2024/01/26 10:36:32;;;;;;;4.13;2.38;;;9.10;99.90;;;;;;4991695;28;20129;-68
2024/01/26 10:39:00;;;;;;;5.05;2.55;;;9.20;99.90;;;;;;4996915;28;20351;-68
2024/01/26 10:41:29;;;;;;;6.88;2.63;;;9.30;99.90;;;;;;4995019;28;20419;-67
2024/01/26 10:43:57;;;;;;;4.32;2.38;;;9.20;99.90;;;;;;4992490;28;20046;-68
2024/01/26 10:46:24;;;;;;;5.25;2.30;;;9.30;99.90;;;;;;4996250;28;20040;-68
2024/01/26 10:48:51;;;;;;;4.75;2.35;;;9.30;99.90;;;;;;4999243;28;20048;-68
2024/01/26 10:51:17;;;;;;;5.28;2.78;;;9.30;99.90;;;;;;5002723;28;20025;-70
2024/01/26 10:53:45;;;;;;;5.03;2.65;;;9.30;99.90;;;;;;4998053;28;20026;-68
2024/01/26 10:56:11;;;;;;;3.92;2.03;;;9.40;99.90;;;;;;4996648;28;20052;-67
2024/01/26 10:58:36;;;;;;;4.55;2.28;;;9.30;99.90;;;;;;5017899;28;20046;-68
2024/01/26 11:01:02;;;;;;;4.38;2.65;;;9.40;99.90;;;;;;4996034;28;20427;-67
2024/01/26 11:03:28;;;;;;;4.72;2.75;;;9.40;99.90;;;;;;5005001;28;20496;-68
2024/01/26 11:05:55;;;;;;;3.13;2.13;;;9.40;99.90;;;;;;4997388;28;20026;-67
2024/01/26 11:08:24;;;;;;;6.47;3.15;;;9.40;99.90;;;;;;5001584;28;20029;-68
2024/01/26 11:10:52;;;;;;;5.13;2.53;;;9.40;99.90;;;;;;4996225;28;20040;-68
2024/01/26 11:13:17;;;;;;;8.00;3.47;;;9.50;99.90;;;;;;5007500;28;20514;-68
2024/01/26 11:15:44;;;;;;;8.95;3.70;;;9.40;99.90;;;;;;4994938;28;20076;-67
2024/01/26 11:18:23;;;;;;;6.05;3.05;;;9.50;99.90;;;;;;5035307;28;20042;-67
2024/01/26 11:20:49;;;;;;;5.40;2.70;;;9.60;99.90;;;;;;5001740;28;20488;-68
2024/01/26 11:23:15;;;;;;;5.40;2.42;;;9.50;99.90;;;;;;4998920;28;20145;-66
2024/01/26 11:25:45;;;;;;;4.30;2.28;;;9.60;99.90;;;;;;5000949;28;20038;-69
2024/01/26 11:28:17;;;;;;;3.88;2.35;;;9.60;99.90;;;;;;4999730;28;20253;-68
2024/01/26 11:30:51;;;;;;;2.50;1.70;;;9.60;99.90;;;;;;5004503;28;20091;-69
2024/01/26 11:33:23;;;;;;;2.85;1.48;;;9.60;99.90;;;;;;5002323;28;20362;-68
2024/01/26 11:35:49;;;;;;;3.25;1.65;;;9.60;99.90;;;;;;4994437;28;20359;-69
2024/01/26 11:38:17;;;;;;;3.05;1.65;;;9.70;99.90;;;;;;4996755;28;20091;-68
2024/01/26 11:40:43;;;;;;;1.05;0.80;;;9.60;99.90;;;;;;4997858;28;20057;-68
2024/01/26 11:43:10;;;;;;;1.27;0.75;;;8.90;99.90;;;;;;4998669;28;20049;-69
2024/01/26 11:45:46;;;;;;;0.82;0.55;;;8.50;99.90;;;;;;5003872;28;20101;-68
2024/01/26 11:48:13;;;;;;;1.98;0.70;;;8.40;99.90;;;;;;4995371;28;20168;-69
2024/01/26 11:50:43;;;;;;;0.82;0.57;;;8.50;99.90;;;;;;5001697;28;20026;-68
2024/01/26 11:53:09;;;;;;;0.87;0.70;;;8.60;99.80;;;;;;4997531;28;20119;-68
2024/01/26 11:55:38;;;;;;;0.25;0.22;;;8.60;98.80;;;;;;5004302;28;20385;-68
2024/01/26 11:58:08;;;;;;;1.35;0.45;;;8.60;98.20;;;;;;5003338;28;20137;-68
2024/01/26 12:00:37;;;;;;;2.10;0.68;;;8.50;97.70;;;;;;4996352;28;20026;-68
2024/01/26 12:03:05;;;;;;;0.88;0.57;;;8.60;96.90;;;;;;4999879;28;20097;-69
2024/01/26 12:05:33;;;;;;;1.33;0.80;;;8.50;97.40;;;;;;4995924;28;20034;-69
2024/01/26 12:07:59;;;;;;;1.35;0.40;;;8.50;97.20;;;;;;5001565;28;20109;-69
2024/01/26 12:10:25;;;;;;;0.30;0.30;;;8.40;97.40;;;;;;4998047;28;20041;-68
2024/01/26 12:12:51;;;;;;;0.73;0.45;;;8.40;97.00;;;;;;5026211;28;20111;-68
2024/01/26 12:15:17;;;;;;;2.38;0.82;;;8.30;96.60;;;;;;5002724;28;20052;-68
2024/01/26 12:17:42;;;;;;;0.63;0.52;;;8.30;96.40;;;;;;4995248;28;20088;-69
2024/01/26 12:20:09;;;;;;;3.67;0.60;;;8.20;96.20;;;;;;4999447;28;20030;-69
2024/01/26 12:22:36;;;;;;;0.73;0.40;;;8.10;96.80;;;;;;5001716;28;20045;-69
2024/01/26 12:25:07;;;;;;;0.45;0.28;;;8.10;97.30;;;;;;4992009;28;20071;-68
2024/01/26 12:27:36;;;;;;;3.22;0.73;;;8.00;97.30;;;;;;4994701;28;20121;-68
2024/01/26 12:30:02;;;;;;;1.42;0.45;;;7.90;97.00;;;;;;4995946;28;20077;-67
2024/01/26 12:32:28;;;;;;;0.60;0.35;;;7.80;97.50;;;;;;4995943;28;20450;-68
2024/01/26 12:34:54;;;;;;;1.20;0.45;;;7.70;97.50;;;;;;4992298;28;20078;-67
2024/01/26 12:37:20;;;;;;;1.60;0.60;;;7.70;96.70;;;;;;4994168;28;20132;-67
2024/01/26 12:39:47;;;;;;;2.92;0.38;;;7.70;96.50;;;;;;4992866;28;20030;-67
2024/01/26 12:42:13;;;;;;;6.05;0.98;;;7.60;96.50;;;;;;5002680;28;20037;-67
2024/01/26 12:44:38;;;;;;;1.95;0.40;;;7.70;95.40;;;;;;5000676;28;21215;-67
2024/01/26 12:47:04;;;;;;;0.65;0.45;;;7.60;95.50;;;;;;4995707;28;20037;-68